Observation data for Denver City on 09/24/2020      Previous  Date  Next       Current Mesonet Observations  Soil Data  Daily Summary Page  Observations in Plain Language
KDVS 240500Z 12006KT 19/10 A3007 RMK A01 T01930103  RH  058%=      5-min Rain = 0
KDVS 240505Z 12006KT 19/10 A3007 RMK A01 T01900102  RH  058%=      5-min Rain = 0
KDVS 240510Z 12007KT 19/10 A3007 RMK A01 T01890104  RH  059%=      5-min Rain = 0
KDVS 240515Z 12007KT 19/11 A3007 RMK A01 T01900106  RH  060%=      5-min Rain = 0
KDVS 240520Z 13006KT 19/11 A3007 RMK A01 T01890106  RH  061%=      5-min Rain = 0
KDVS 240525Z 12006KT 19/11 A3007 RMK A01 T01860105  RH  061%=      5-min Rain = 0
KDVS 240530Z 12007KT 19/11 A3007 RMK A01 T01850106  RH  062%=      5-min Rain = 0
KDVS 240535Z 13007KT 18/11 A3007 RMK A01 T01840107  RH  063%=      5-min Rain = 0
KDVS 240540Z 12006KT 18/11 A3007 RMK A01 T01820107  RH  064%=      5-min Rain = 0
KDVS 240545Z 13006KT 18/11 A3007 RMK A01 T01800107  RH  065%=      5-min Rain = 0
KDVS 240550Z 13005KT 18/11 A3007 RMK A01 T01780108  RH  066%=      5-min Rain = 0
KDVS 240555Z 13005KT 18/11 A3007 RMK A01 T01770108  RH  066%=      5-min Rain = 0
KDVS 240600Z 13005KT 18/11 A3007 RMK A01 T01750108  RH  067%=      5-min Rain = 0
KDVS 240605Z 14004KT 17/11 A3007 RMK A01 T01730107  RH  068%=      5-min Rain = 0
KDVS 240610Z 14005KT 17/11 A3007 RMK A01 T01710108  RH  069%=      5-min Rain = 0
KDVS 240615Z 14006KT 17/11 A3007 RMK A01 T01700109  RH  070%=      5-min Rain = 0
KDVS 240620Z 13006KT 17/11 A3007 RMK A01 T01690110  RH  071%=      5-min Rain = 0
KDVS 240625Z 12006KT 17/11 A3007 RMK A01 T01670109  RH  071%=      5-min Rain = 0
KDVS 240630Z 12005KT 17/11 A3007 RMK A01 T01650109  RH  072%=      5-min Rain = 0
KDVS 240635Z 12005KT 16/11 A3007 RMK A01 T01640108  RH  072%=      5-min Rain = 0
KDVS 240640Z 12005KT 16/11 A3007 RMK A01 T01620108  RH  073%=      5-min Rain = 0
KDVS 240645Z 13006KT 16/11 A3007 RMK A01 T01610108  RH  073%=      5-min Rain = 0
KDVS 240650Z 13006KT 16/11 A3007 RMK A01 T01590107  RH  074%=      5-min Rain = 0
KDVS 240655Z 13006KT 16/11 A3007 RMK A01 T01570107  RH  074%=      5-min Rain = 0
KDVS 240700Z 14006KT 16/11 A3007 RMK A01 T01560108  RH  075%=      5-min Rain = 0
KDVS 240705Z 14006KT 16/11 A3007 RMK A01 T01570109  RH  076%=      5-min Rain = 0
KDVS 240710Z 15006KT 16/11 A3007 RMK A01 T01580111  RH  076%=      5-min Rain = 0
KDVS 240715Z 15006KT 16/11 A3007 RMK A01 T01610114  RH  076%=      5-min Rain = 0
KDVS 240720Z 14006KT 16/11 A3007 RMK A01 T01590112  RH  076%=      5-min Rain = 0
KDVS 240725Z 14005KT 16/11 A3007 RMK A01 T01550110  RH  077%=      5-min Rain = 0
KDVS 240730Z 14005KT 15/11 A3007 RMK A01 T01530110  RH  078%=      5-min Rain = 0
KDVS 240735Z 14004KT 15/11 A3007 RMK A01 T01520111  RH  079%=      5-min Rain = 0
KDVS 240740Z 14004KT 15/11 A3007 RMK A01 T01520112  RH  080%=      5-min Rain = 0
KDVS 240745Z 14004KT 15/11 A3007 RMK A01 T01520112  RH  080%=      5-min Rain = 0
KDVS 240750Z 13003KT 15/11 A3007 RMK A01 T01510112  RH  080%=      5-min Rain = 0
KDVS 240755Z 14003KT 15/11 A3007 RMK A01 T01510113  RH  081%=      5-min Rain = 0
KDVS 240800Z 12003KT 15/12 A3007 RMK A01 T01530116  RH  081%=      5-min Rain = 0
KDVS 240805Z 12002KT 15/12 A3007 RMK A01 T01530115  RH  081%=      5-min Rain = 0
KDVS 240810Z 14004KT 15/12 A3007 RMK A01 T01540117  RH  081%=      5-min Rain = 0
KDVS 240815Z 15004KT 16/12 A3007 RMK A01 T01560116  RH  080%=      5-min Rain = 0
KDVS 240820Z 13004KT 16/12 A3007 RMK A01 T01560115  RH  079%=      5-min Rain = 0
KDVS 240825Z 12003KT 15/11 A3007 RMK A01 T01520113  RH  080%=      5-min Rain = 0
KDVS 240830Z 12003KT 15/12 A3007 RMK A01 T01520116  RH  082%=      5-min Rain = 0
KDVS 240835Z 11003KT 15/11 A3007 RMK A01 T01520114  RH  081%=      5-min Rain = 0
KDVS 240840Z 13003KT 15/11 A3007 RMK A01 T01500113  RH  082%=      5-min Rain = 0
KDVS 240845Z 12003KT 15/12 A3007 RMK A01 T01510116  RH  083%=      5-min Rain = 0
KDVS 240850Z 11003KT 15/12 A3007 RMK A01 T01510116  RH  082%=      5-min Rain = 0
KDVS 240855Z 12002KT 15/12 A3007 RMK A01 T01510115  RH  082%=      5-min Rain = 0
KDVS 240900Z 11002KT 15/12 A3007 RMK A01 T01500115  RH  083%=      5-min Rain = 0
KDVS 240905Z 10002KT 15/11 A3006 RMK A01 T01480114  RH  083%=      5-min Rain = 0
KDVS 240910Z 09003KT 15/11 A3006 RMK A01 T01470113  RH  083%=      5-min Rain = 0
KDVS 240915Z 09003KT 15/11 A3006 RMK A01 T01450109  RH  082%=      5-min Rain = 0
KDVS 240920Z 08003KT 14/11 A3006 RMK A01 T01410105  RH  082%=      5-min Rain = 0
KDVS 240925Z 07002KT 14/10 A3006 RMK A01 T01370103  RH  083%=      5-min Rain = 0
KDVS 240930Z 04002KT 14/11 A3006 RMK A01 T01360105  RH  084%=      5-min Rain = 0
KDVS 240935Z 03002KT 14/11 A3006 RMK A01 T01380106  RH  084%=      5-min Rain = 0
KDVS 240940Z 04002KT 14/11 A3006 RMK A01 T01390105  RH  082%=      5-min Rain = 0
KDVS 240945Z 03002KT 14/10 A3006 RMK A01 T01360096  RH  079%=      5-min Rain = 0
KDVS 240950Z 02002KT 13/10 A3006 RMK A01 T01340095  RH  080%=      5-min Rain = 0
KDVS 240955Z 02002KT 13/10 A3006 RMK A01 T01320095  RH  081%=      5-min Rain = 0
KDVS 241000Z 02002KT 13/10 A3006 RMK A01 T01320097  RH  082%=      5-min Rain = 0
KDVS 241005Z 02003KT 13/10 A3006 RMK A01 T01320098  RH  082%=      5-min Rain = 0
KDVS 241010Z 01003KT 13/10 A3007 RMK A01 T01330099  RH  083%=      5-min Rain = 0
KDVS 241015Z 01003KT 13/10 A3007 RMK A01 T01330100  RH  083%=      5-min Rain = 0
KDVS 241020Z 01003KT 13/10 A3007 RMK A01 T01330099  RH  082%=      5-min Rain = 0
KDVS 241025Z 01004KT 13/10 A3007 RMK A01 T01320099  RH  083%=      5-min Rain = 0
KDVS 241030Z 01005KT 13/10 A3007 RMK A01 T01300098  RH  084%=      5-min Rain = 0
KDVS 241035Z 01005KT 13/10 A3007 RMK A01 T01280097  RH  084%=      5-min Rain = 0
KDVS 241040Z 01005KT 13/10 A3007 RMK A01 T01290101  RH  086%=      5-min Rain = 0
KDVS 241045Z 02005KT 13/10 A3007 RMK A01 T01300100  RH  085%=      5-min Rain = 0
KDVS 241050Z 02005KT 13/10 A3007 RMK A01 T01290101  RH  086%=      5-min Rain = 0
KDVS 241055Z 03005KT 13/10 A3007 RMK A01 T01290101  RH  086%=      5-min Rain = 0
KDVS 241100Z 03005KT 13/10 A3007 RMK A01 T01280100  RH  086%=      5-min Rain = 0
KDVS 241105Z 03005KT 13/10 A3007 RMK A01 T01270100  RH  086%=      5-min Rain = 0
KDVS 241110Z 03005KT 13/10 A3007 RMK A01 T01260099  RH  087%=      5-min Rain = 0
KDVS 241115Z 03005KT 13/10 A3007 RMK A01 T01260100  RH  087%=      5-min Rain = 0
KDVS 241120Z 02005KT 13/10 A3007 RMK A01 T01260101  RH  088%=      5-min Rain = 0
KDVS 241125Z 02005KT 13/10 A3007 RMK A01 T01270104  RH  088%=      5-min Rain = 0
KDVS 241130Z 01005KT 13/10 A3008 RMK A01 T01280104  RH  088%=      5-min Rain = 0
KDVS 241135Z 01005KT 13/10 A3008 RMK A01 T01280104  RH  088%=      5-min Rain = 0
KDVS 241140Z 00005KT 13/10 A3008 RMK A01 T01280103  RH  088%=      5-min Rain = 0
KDVS 241145Z 36005KT 13/10 A3008 RMK A01 T01280103  RH  088%=      5-min Rain = 0
KDVS 241150Z 35004KT 13/10 A3008 RMK A01 T01270100  RH  086%=      5-min Rain = 0
KDVS 241155Z 35004KT 13/10 A3008 RMK A01 T01260098  RH  086%=      5-min Rain = 0
KDVS 241200Z 00004KT 13/10 A3008 RMK A01 T01260101  RH  087%=      5-min Rain = 0
KDVS 241205Z 35004KT 13/10 A3009 RMK A01 T01270101  RH  087%=      5-min Rain = 0
KDVS 241210Z 35003KT 13/10 A3009 RMK A01 T01260100  RH  087%=      5-min Rain = 0
KDVS 241215Z 35003KT 13/10 A3009 RMK A01 T01250097  RH  086%=      5-min Rain = 0
KDVS 241220Z 35003KT 12/10 A3009 RMK A01 T01240097  RH  087%=      5-min Rain = 0
KDVS 241225Z 35003KT 12/10 A3009 RMK A01 T01230096  RH  086%=      5-min Rain = 0
KDVS 241230Z 35003KT 12/10 A3009 RMK A01 T01230096  RH  086%=      5-min Rain = 0
KDVS 241235Z 36003KT 12/10 A3009 RMK A01 T01230098  RH  087%=      5-min Rain = 0
KDVS 241240Z 34003KT 12/10 A3009 RMK A01 T01230096  RH  086%=      5-min Rain = 0
KDVS 241245Z 33004KT 12/10 A3009 RMK A01 T01220096  RH  087%=      5-min Rain = 0
KDVS 241250Z 33004KT 12/10 A3009 RMK A01 T01230096  RH  087%=      5-min Rain = 0
KDVS 241255Z 34004KT 12/10 A3009 RMK A01 T01240098  RH  087%=      5-min Rain = 0
KDVS 241300Z 34004KT 13/10 A3009 RMK A01 T01260100  RH  087%=      5-min Rain = 0
KDVS 241305Z 36004KT 13/10 A301 RMK A01 T01270100  RH  087%=      5-min Rain = 0
KDVS 241310Z 35004KT 13/10 A301 RMK A01 T01300104  RH  087%=      5-min Rain = 0
KDVS 241315Z 35003KT 13/10 A301 RMK A01 T01320104  RH  086%=      5-min Rain = 0
KDVS 241320Z 35003KT 13/10 A301 RMK A01 T01330104  RH  085%=      5-min Rain = 0
KDVS 241325Z 34003KT 13/10 A301 RMK A01 T01340104  RH  084%=      5-min Rain = 0
KDVS 241330Z 33003KT 14/10 A301 RMK A01 T01370104  RH  084%=      5-min Rain = 0
KDVS 241335Z 33003KT 14/11 A301 RMK A01 T01400105  RH  082%=      5-min Rain = 0
KDVS 241340Z 33003KT 14/11 A301 RMK A01 T01440108  RH  082%=      5-min Rain = 0
KDVS 241345Z 34002KT 15/11 A3011 RMK A01 T01490112  RH  081%=      5-min Rain = 0
KDVS 241350Z 34002KT 15/11 A301 RMK A01 T01530114  RH  080%=      5-min Rain = 0
KDVS 241355Z 35002KT 16/12 A3011 RMK A01 T01580118  RH  080%=      5-min Rain = 0
KDVS 241400Z 36002KT 16/12 A3011 RMK A01 T01630120  RH  079%=      5-min Rain = 0
KDVS 241405Z 01002KT 17/12 A3011 RMK A01 T01680122  RH  077%=      5-min Rain = 0
KDVS 241410Z 35002KT 17/12 A3012 RMK A01 T01710123  RH  077%=      5-min Rain = 0
KDVS 241415Z 35003KT 17/13 A3012 RMK A01 T01740125  RH  075%=      5-min Rain = 0
KDVS 241420Z 36002KT 18/13 A3012 RMK A01 T01780127  RH  075%=      5-min Rain = 0
KDVS 241425Z 34001KT 18/13 A3012 RMK A01 T01810128  RH  074%=      5-min Rain = 0
KDVS 241430Z 35000KT 19/13 A3012 RMK A01 T01850130  RH  073%=      5-min Rain = 0
KDVS 241435Z 31000KT 19/13 A3012 RMK A01 T01910132  RH  071%=      5-min Rain = 0
KDVS 241440Z 29000KT 19/13 A3012 RMK A01 T01910131  RH  071%=      5-min Rain = 0
KDVS 241445Z 25001KT 19/13 A3012 RMK A01 T01940132  RH  070%=      5-min Rain = 0
KDVS 241450Z 26002KT 20/13 A3012 RMK A01 T01950132  RH  070%=      5-min Rain = 0
KDVS 241455Z 24002KT 20/13 A3012 RMK A01 T01970132  RH  069%=      5-min Rain = 0
KDVS 241500Z 24002KT 20/13 A3012 RMK A01 T01990132  RH  068%=      5-min Rain = 0
KDVS 241505Z 22002KT 20/13 A3012 RMK A01 T02030132  RH  066%=      5-min Rain = 0
KDVS 241510Z 21002KT 21/13 A3013 RMK A01 T02080132  RH  064%=      5-min Rain = 0
KDVS 241515Z 21002KT 21/13 A3013 RMK A01 T02110132  RH  063%=      5-min Rain = 0
KDVS 241520Z 19003KT 21/13 A3013 RMK A01 T02130132  RH  062%=      5-min Rain = 0
KDVS 241525Z 21004KT 22/13 A3013 RMK A01 T02160132  RH  061%=      5-min Rain = 0
KDVS 241530Z 20004KT 22/13 A3013 RMK A01 T02190134  RH  061%=      5-min Rain = 0
KDVS 241535Z 19004KT 22/13 A3013 RMK A01 T02230134  RH  059%=      5-min Rain = 0
KDVS 241540Z 20004KT 23/13 A3012 RMK A01 T02250134  RH  059%=      5-min Rain = 0
KDVS 241545Z 20005KT 23/14 A3013 RMK A01 T02290135  RH  058%=      5-min Rain = 0
KDVS 241550Z 22005KT 23/14 A3013 RMK A01 T02300135  RH  057%=      5-min Rain = 0
KDVS 241555Z 21005KT 23/13 A3013 RMK A01 T02290134  RH  057%=      5-min Rain = 0
KDVS 241600Z 21004KT 23/13 A3013 RMK A01 T02320134  RH  056%=      5-min Rain = 0
KDVS 241605Z 19005KT 24/13 A3013 RMK A01 T02380134  RH  054%=      5-min Rain = 0
KDVS 241610Z 21007KT 24/13 A3013 RMK A01 T02420129  RH  051%=      5-min Rain = 0
KDVS 241615Z 22006KT 24/13 A3013 RMK A01 T02430129  RH  051%=      5-min Rain = 0
KDVS 241620Z 21006KT 24/13 A3013 RMK A01 T02420130  RH  051%=      5-min Rain = 0
KDVS 241625Z 21005KT 25/13 A3013 RMK A01 T02480131  RH  050%=      5-min Rain = 0
KDVS 241630Z 22005KT 25/13 A3012 RMK A01 T02460131  RH  051%=      5-min Rain = 0
KDVS 241635Z 22005G10KT 25/13 A3012 RMK A01 T02520132  RH  049%=      5-min Rain = 0
KDVS 241640Z 23004KT 25/13 A3012 RMK A01 T02530132  RH  049%=      5-min Rain = 0
KDVS 241645Z 22005KT 25/13 A3012 RMK A01 T02530130  RH  048%=      5-min Rain = 0
KDVS 241650Z 23007KT 26/13 A3012 RMK A01 T02590125  RH  045%=      5-min Rain = 0
KDVS 241655Z 23006KT 26/12 A3012 RMK A01 T02600123  RH  044%=      5-min Rain = 0
KDVS 241700Z 24006KT 26/12 A3012 RMK A01 T02620122  RH  043%=      5-min Rain = 0
KDVS 241705Z 23006KT 26/12 A3012 RMK A01 T02630122  RH  043%=      5-min Rain = 0
KDVS 241710Z 21005KT 27/12 A3012 RMK A01 T02650119  RH  042%=      5-min Rain = 0
KDVS 241715Z 22006KT 27/12 A3011 RMK A01 T02690118  RH  040%=      5-min Rain = 0
KDVS 241720Z 22005KT 27/12 A3011 RMK A01 T02690117  RH  040%=      5-min Rain = 0
KDVS 241725Z 24003KT 27/12 A3011 RMK A01 T02670115  RH  040%=      5-min Rain = 0
KDVS 241730Z 22006KT 27/12 A3011 RMK A01 T02710116  RH  040%=      5-min Rain = 0
KDVS 241735Z 22004KT 27/12 A3011 RMK A01 T02700116  RH  040%=      5-min Rain = 0
KDVS 241740Z 21005KT 27/11 A3011 RMK A01 T02740114  RH  038%=      5-min Rain = 0
KDVS 241745Z 21001KT 27/11 A3011 RMK A01 T02730112  RH  038%=      5-min Rain = 0
KDVS 241750Z 23004KT 28/11 A3011 RMK A01 T02770106  RH  036%=      5-min Rain = 0
KDVS 241755Z 21004G9KT 28/11 A3011 RMK A01 T02800110  RH  036%=      5-min Rain = 0
KDVS 241800Z 30003KT 28/11 A3011 RMK A01 T02790110  RH  036%=      5-min Rain = 0
KDVS 241805Z 24003KT 28/11 A301 RMK A01 T02840111  RH  035%=      5-min Rain = 0
KDVS 241810Z 22004KT 28/11 A301 RMK A01 T02830107  RH  035%=      5-min Rain = 0
KDVS 241815Z 22003KT 29/11 A301 RMK A01 T02850105  RH  034%=      5-min Rain = 0
KDVS 241820Z 27003KT 29/10 A3009 RMK A01 T02870102  RH  033%=      5-min Rain = 0
KDVS 241825Z 22004KT 29/11 A3009 RMK A01 T02890105  RH  033%=      5-min Rain = 0
KDVS 241830Z 23004KT 29/10 A3009 RMK A01 T02890102  RH  032%=      5-min Rain = 0
KDVS 241835Z 28003KT 29/10 A3009 RMK A01 T02890104  RH  033%=      5-min Rain = 0
KDVS 241840Z 28003KT 30/10 A3009 RMK A01 T02970104  RH  031%=      5-min Rain = 0
KDVS 241845Z 21002KT 30/10 A3008 RMK A01 T02970101  RH  031%=      5-min Rain = 0
KDVS 241850Z 22006KT 30/10 A3008 RMK A01 T02970103  RH  031%=      5-min Rain = 0
KDVS 241855Z 22005KT 29/10 A3008 RMK A01 T02920100  RH  031%=      5-min Rain = 0
KDVS 241900Z 27003KT 29/10 A3008 RMK A01 T02930100  RH  031%=      5-min Rain = 0
KDVS 241905Z 23006KT 30/10 A3008 RMK A01 T02970101  RH  031%=      5-min Rain = 0
KDVS 241910Z 20006KT 30/10 A3007 RMK A01 T02990101  RH  030%=      5-min Rain = 0
KDVS 241915Z 25003KT 30/10 A3007 RMK A01 T03040098  RH  029%=      5-min Rain = 0
KDVS 241920Z 29005KT 30/09 A3007 RMK A01 T03040092  RH  028%=      5-min Rain = 0
KDVS 241925Z 21004KT 31/09 A3007 RMK A01 T03050090  RH  027%=      5-min Rain = 0
KDVS 241930Z 23003KT 30/09 A3006 RMK A01 T03040088  RH  027%=      5-min Rain = 0
KDVS 241935Z 32003KT 31/08 A3006 RMK A01 T03050079  RH  025%=      5-min Rain = 0
KDVS 241940Z 29004KT 31/07 A3006 RMK A01 T03060073  RH  024%=      5-min Rain = 0
KDVS 241945Z 25005KT 31/08 A3005 RMK A01 T03090076  RH  024%=      5-min Rain = 0
KDVS 241950Z 25004KT 31/07 A3005 RMK A01 T03070070  RH  023%=      5-min Rain = 0
KDVS 241955Z 21004KT 31/07 A3005 RMK A01 T03110070  RH  023%=      5-min Rain = 0
KDVS 242000Z 18005KT 31/07 A3005 RMK A01 T03110069  RH  023%=      5-min Rain = 0
KDVS 242005Z 18005KT 31/07 A3005 RMK A01 T03080071  RH  023%=      5-min Rain = 0
KDVS 242010Z 19003KT 31/08 A3004 RMK A01 T03050077  RH  025%=      5-min Rain = 0
KDVS 242015Z 14002KT 31/08 A3004 RMK A01 T03060076  RH  024%=      5-min Rain = 0
KDVS 242020Z 26003KT 31/08 A3004 RMK A01 T03120075  RH  023%=      5-min Rain = 0
KDVS 242025Z 26004KT 32/07 A3004 RMK A01 T03160073  RH  023%=      5-min Rain = 0
KDVS 242030Z 19003G9KT 32/07 A3004 RMK A01 T03190072  RH  022%=      5-min Rain = 0
KDVS 242035Z 13003KT 32/07 A3003 RMK A01 T03160070  RH  022%=      5-min Rain = 0
KDVS 242040Z 12003KT 32/06 A3003 RMK A01 T03170062  RH  021%=      5-min Rain = 0
KDVS 242045Z 19003G8KT 32/06 A3003 RMK A01 T03200062  RH  021%=      5-min Rain = 0
KDVS 242050Z 15005KT 32/06 A3003 RMK A01 T03200061  RH  020%=      5-min Rain = 0
KDVS 242055Z 15006KT 32/06 A3003 RMK A01 T03200061  RH  020%=      5-min Rain = 0
KDVS 242100Z 15007G12KT 32/06 A3003 RMK A01 T03220062  RH  020%=      5-min Rain = 0
KDVS 242105Z 14006KT 32/06 A3003 RMK A01 T03200062  RH  020%=      5-min Rain = 0
KDVS 242110Z 16004KT 31/06 A3003 RMK A01 T03140062  RH  021%=      5-min Rain = 0
KDVS 242115Z 22003KT 31/06 A3002 RMK A01 T03140063  RH  021%=      5-min Rain = 0
KDVS 242120Z 20004KT 32/06 A3002 RMK A01 T03150061  RH  021%=      5-min Rain = 0
KDVS 242125Z 17003KT 32/06 A3002 RMK A01 T03190058  RH  020%=      5-min Rain = 0
KDVS 242130Z 16007KT 32/06 A3002 RMK A01 T03210057  RH  020%=      5-min Rain = 0
KDVS 242135Z 16004KT 32/06 A3002 RMK A01 T03170058  RH  020%=      5-min Rain = 0
KDVS 242140Z 14006KT 32/06 A3002 RMK A01 T03180056  RH  020%=      5-min Rain = 0
KDVS 242145Z 13005KT 32/06 A3002 RMK A01 T03170056  RH  020%=      5-min Rain = 0
KDVS 242150Z 07004KT 32/06 A3001 RMK A01 T03200057  RH  020%=      5-min Rain = 0
KDVS 242155Z 05002G7KT 32/06 A3001 RMK A01 T03190058  RH  020%=      5-min Rain = 0
KDVS 242200Z 03006KT 32/06 A3001 RMK A01 T03190058  RH  020%=      5-min Rain = 0
KDVS 242205Z 08003KT 32/06 A3001 RMK A01 T03180060  RH  020%=      5-min Rain = 0
KDVS 242210Z 16002KT 32/06 A3001 RMK A01 T03190055  RH  020%=      5-min Rain = 0
KDVS 242215Z 16005KT 32/05 A3001 RMK A01 T03210054  RH  019%=      5-min Rain = 0
KDVS 242220Z 18005KT 32/05 A3001 RMK A01 T03190050  RH  019%=      5-min Rain = 0
KDVS 242225Z 28005KT 32/05 A3001 RMK A01 T03170052  RH  019%=      5-min Rain = 0
KDVS 242230Z 20004G9KT 32/05 A3001 RMK A01 T03150051  RH  019%=      5-min Rain = 0
KDVS 242235Z 22005KT 32/05 A3001 RMK A01 T03180052  RH  019%=      5-min Rain = 0
KDVS 242240Z 18003KT 32/05 A3001 RMK A01 T03170051  RH  019%=      5-min Rain = 0
KDVS 242245Z 18003KT 32/05 A30 RMK A01 T03180049  RH  019%=      5-min Rain = 0
KDVS 242250Z 19003KT 32/05 A30 RMK A01 T03190049  RH  019%=      5-min Rain = 0
KDVS 242255Z 27003KT 32/05 A30 RMK A01 T03200049  RH  019%=      5-min Rain = 0
KDVS 242300Z 27007KT 32/05 A30 RMK A01 T03180049  RH  019%=      5-min Rain = 0
KDVS 242305Z 28005KT 32/05 A30 RMK A01 T03150049  RH  019%=      5-min Rain = 0
KDVS 242310Z 26006KT 31/05 A30 RMK A01 T03140048  RH  019%=      5-min Rain = 0
KDVS 242315Z 24005KT 31/05 A30 RMK A01 T03130047  RH  019%=      5-min Rain = 0
KDVS 242320Z 24005KT 31/05 A30 RMK A01 T03110045  RH  019%=      5-min Rain = 0
KDVS 242325Z 23004KT 31/05 A30 RMK A01 T03120046  RH  019%=      5-min Rain = 0
KDVS 242330Z 27005KT 31/05 A30 RMK A01 T03120046  RH  019%=      5-min Rain = 0
KDVS 242335Z 26002KT 31/05 A30 RMK A01 T03110045  RH  019%=      5-min Rain = 0
KDVS 242340Z 33001KT 31/05 A30 RMK A01 T03120046  RH  019%=      5-min Rain = 0
KDVS 242345Z 35000KT 31/05 A30 RMK A01 T03110047  RH  019%=      5-min Rain = 0
KDVS 242350Z 25002KT 31/05 A30 RMK A01 T03140045  RH  019%=      5-min Rain = 0
KDVS 242355Z 26002KT 31/04 A30 RMK A01 T03110044  RH  019%=      5-min Rain = 0
KDVS 250000Z 28002KT 31/05 A30 RMK A01 T03080045  RH  019%=      5-min Rain = 0
KDVS 250005Z 26001KT 31/05 A30 RMK A01 T03070045  RH  019%=      5-min Rain = 0
KDVS 250010Z 16003KT 31/05 A30 RMK A01 T03060045  RH  020%=      5-min Rain = 0
KDVS 250015Z 14003KT 30/04 A30 RMK A01 T03020044  RH  020%=      5-min Rain = 0
KDVS 250020Z 15005KT 30/05 A30 RMK A01 T02970045  RH  021%=      5-min Rain = 0
KDVS 250025Z 14007KT 29/04 A30 RMK A01 T02920044  RH  021%=      5-min Rain = 0
KDVS 250030Z 15006KT 29/04 A30 RMK A01 T02860043  RH  022%=      5-min Rain = 0
KDVS 250035Z 15007KT 28/04 A30 RMK A01 T02790044  RH  023%=      5-min Rain = 0
KDVS 250040Z 14007KT 27/04 A30 RMK A01 T02740041  RH  023%=      5-min Rain = 0
KDVS 250045Z 13007KT 27/03 A3001 RMK A01 T02700033  RH  022%=      5-min Rain = 0
KDVS 250050Z 13007KT 27/03 A3001 RMK A01 T02650025  RH  022%=      5-min Rain = 0
KDVS 250055Z 13006KT 26/02 A3001 RMK A01 T02590023  RH  022%=      5-min Rain = 0
KDVS 250100Z 14006KT 25/02 A3001 RMK A01 T02520022  RH  023%=      5-min Rain = 0
KDVS 250105Z 13008KT 25/02 A3001 RMK A01 T02470022  RH  023%=      5-min Rain = 0
KDVS 250110Z 13008KT 24/03 A3001 RMK A01 T02430025  RH  025%=      5-min Rain = 0
KDVS 250115Z 13007KT 24/03 A3001 RMK A01 T02410027  RH  025%=      5-min Rain = 0
KDVS 250120Z 13007KT 24/03 A3001 RMK A01 T02360030  RH  026%=      5-min Rain = 0
KDVS 250125Z 13007KT 23/03 A3001 RMK A01 T02330031  RH  027%=      5-min Rain = 0
KDVS 250130Z 14007KT 23/03 A3001 RMK A01 T02290028  RH  027%=      5-min Rain = 0
KDVS 250135Z 14007KT 23/03 A3001 RMK A01 T02260026  RH  027%=      5-min Rain = 0
KDVS 250140Z 14007KT 22/02 A3001 RMK A01 T02210022  RH  027%=      5-min Rain = 0
KDVS 250145Z 14007KT 22/02 A3001 RMK A01 T02180018  RH  027%=      5-min Rain = 0
KDVS 250150Z 15008KT 22/02 A3001 RMK A01 T02150015  RH  027%=      5-min Rain = 0
KDVS 250155Z 14007KT 21/02 A3002 RMK A01 T02140015  RH  027%=      5-min Rain = 0
KDVS 250200Z 14007KT 21/02 A3002 RMK A01 T02110015  RH  028%=      5-min Rain = 0
KDVS 250205Z 14008KT 21/01 A3002 RMK A01 T02070014  RH  028%=      5-min Rain = 0
KDVS 250210Z 14007KT 21/02 A3002 RMK A01 T02070015  RH  028%=      5-min Rain = 0
KDVS 250215Z 14007KT 21/02 A3002 RMK A01 T02060015  RH  028%=      5-min Rain = 0
KDVS 250220Z 14007KT 20/02 A3002 RMK A01 T02030015  RH  029%=      5-min Rain = 0
KDVS 250225Z 14007KT 20/02 A3002 RMK A01 T02020017  RH  030%=      5-min Rain = 0
KDVS 250230Z 14007KT 20/02 A3002 RMK A01 T02000016  RH  030%=      5-min Rain = 0
KDVS 250235Z 14007KT 20/02 A3002 RMK A01 T01990016  RH  030%=      5-min Rain = 0
KDVS 250240Z 15008KT 20/02 A3003 RMK A01 T02000018  RH  030%=      5-min Rain = 0
KDVS 250245Z 15009KT 20/02 A3003 RMK A01 T02040017  RH  029%=      5-min Rain = 0
KDVS 250250Z 15009KT 20/02 A3003 RMK A01 T02020015  RH  029%=      5-min Rain = 0
KDVS 250255Z 15008KT 20/02 A3003 RMK A01 T01970016  RH  030%=      5-min Rain = 0
KDVS 250300Z 15008KT 20/02 A3003 RMK A01 T01950015  RH  031%=      5-min Rain = 0
KDVS 250305Z 15007KT 19/01 A3003 RMK A01 T01930014  RH  031%=      5-min Rain = 0
KDVS 250310Z 15007KT 19/01 A3003 RMK A01 T01930014  RH  031%=      5-min Rain = 0
KDVS 250315Z 15007KT 19/01 A3004 RMK A01 T01920014  RH  031%=      5-min Rain = 0
KDVS 250320Z 15008KT 20/02 A3004 RMK A01 T01950015  RH  030%=      5-min Rain = 0
KDVS 250325Z 15008KT 20/02 A3004 RMK A01 T02020017  RH  030%=      5-min Rain = 0
KDVS 250330Z 15009KT 21/02 A3004 RMK A01 T02090018  RH  029%=      5-min Rain = 0
KDVS 250335Z 16009KT 21/02 A3004 RMK A01 T02100018  RH  028%=      5-min Rain = 0
KDVS 250340Z 16009KT 21/02 A3004 RMK A01 T02110021  RH  029%=      5-min Rain = 0
KDVS 250345Z 16009KT 21/02 A3004 RMK A01 T02100022  RH  029%=      5-min Rain = 0
KDVS 250350Z 16009KT 21/02 A3004 RMK A01 T02120023  RH  029%=      5-min Rain = 0
KDVS 250355Z 15009KT 21/02 A3004 RMK A01 T02130024  RH  029%=      5-min Rain = 0
KDVS 250400Z 16009KT 21/03 A3004 RMK A01 T02120025  RH  029%=      5-min Rain = 0
KDVS 250405Z 16009KT 21/03 A3004 RMK A01 T02130026  RH  030%=      5-min Rain = 0
KDVS 250410Z 16009KT 21/03 A3004 RMK A01 T02140028  RH  030%=      5-min Rain = 0
KDVS 250415Z 16009KT 21/03 A3004 RMK A01 T02140030  RH  030%=      5-min Rain = 0
KDVS 250420Z 16009KT 21/03 A3004 RMK A01 T02130031  RH  031%=      5-min Rain = 0
KDVS 250425Z 17009KT 21/03 A3004 RMK A01 T02120033  RH  031%=      5-min Rain = 0
KDVS 250430Z 16010KT 21/04 A3004 RMK A01 T02100035  RH  032%=      5-min Rain = 0
KDVS 250435Z 16010KT 21/04 A3004 RMK A01 T02100036  RH  032%=      5-min Rain = 0
KDVS 250440Z 16009KT 21/04 A3004 RMK A01 T02090037  RH  033%=      5-min Rain = 0
KDVS 250445Z 17009KT 21/04 A3004 RMK A01 T02070038  RH  033%=      5-min Rain = 0
KDVS 250450Z 18009KT 21/04 A3004 RMK A01 T02070038  RH  034%=      5-min Rain = 0
KDVS 250455Z 17008KT 20/04 A3004 RMK A01 T02040037  RH  034%=      5-min Rain = 0

Page generated in 0.0097 seconds.